Azucena, Louisiana
Current Conditions -  °F | °C
As of 8:55 AM on Monday 22 Dec 2014 (Local Time) from KHEZ Reporting Station
Overcast Overcast  
Wind Chill: 57°   Ceiling: 300
Heat Index: 57°   Visibility: 1.2mi
Dew Point: 55°   Wind: 5mph
Humidity: 94%   Direction: 170°S
Pressure: 29.82"   Gusts: NA
Location:  31.835°N, 91.3655°W
Report Text: KHEZ 221455Z AUTO 17004KT 1 1/4SM OVC003 14/13 A2982 RMK AO1 57003
Loading
Personal Weather Stations






























Interactive Weather Map New forecast layout! Learn more

10-Day Weather Forecast

Advertisements
Track Severe Weather on mobile